Flugplatz Münster Osnabrück

Bericht für EDDG

vom 25.01. um 22:50 UTC

Wind 3 kt aus 140°

Sichtweite 700 m

Nebel

bedeckt in 100 ft

Temperatur 1.0°C

Taupunkt 0.0°C

Luftfeuchtigkeit 93%

Luftdruck 1020 hPa

EDDG 252250Z 14003KT 0700 R25/1700N FG OVC001 01/00 Q1020 TEMPO 0500

Prognose für EDDG

vom 25.01. um 00:00 UTC

Am 25.01. zwischen 00:00 UTC und 00:00 UTC

Wind 5 kt aus 160°

Sichtweite 1200 m

feuchter Dunst

bedeckt in 300 ft


Am 25.01. zwischen 00:00 UTC und 00:00 UTC zeitweise

Sichtweite 500 m

Nebel

bedeckt in 100 ft


Zwischen 00:00 und 00:00 UTC übergehend zu

Wind 5 kt aus 160°

Sichtweite 2500 m

feuchter Dunst

bedeckt in 300 ft


Zwischen 00:00 und 00:00 UTC übergehend zu

Wind 5 kt aus 160°

Sichtweite 4000 m

feuchter Dunst

aufgelockert bewölkt in 300 ft

aufgebrochene Bewölkung in 1500 ft


Zwischen 00:00 und 00:00 UTC übergehend zu

Wind 5 kt aus 160°

Sichtweite 10 km oder mehr

feuchter Dunst

aufgelockert bewölkt in 300 ft

aufgebrochene Bewölkung in 1500 ft

TAF AMD EDDG 252220Z 2522/2618 16005KT 1200 BR OVC003 TEMPO 2522/2606 0500 FG OVC001 BECMG 2603/2606 2500 BR BECMG 2607/2610 4000 BR SCT003 BKN015 BECMG 2610/2612 9999
Impressum